createdAt,value
2019-03-31T00:00:15.524Z,11.37
2019-03-31T00:02:42.775Z,12.30
2019-03-31T00:05:10.046Z,12.00
2019-03-31T00:07:37.300Z,12.40
2019-03-31T00:10:06.272Z,12.30
2019-03-31T00:12:33.801Z,12.50
2019-03-31T00:15:01.058Z,14.23
2019-03-31T00:17:28.330Z,12.13
2019-03-31T00:19:55.570Z,12.87
2019-03-31T00:22:22.915Z,12.47
2019-03-31T00:24:53.298Z,12.20
2019-03-31T00:27:19.167Z,13.00
2019-03-31T00:29:46.426Z,12.17
2019-03-31T00:32:13.695Z,13.73
2019-03-31T00:34:40.945Z,12.90
2019-03-31T00:37:08.257Z,13.30
2019-03-31T00:39:35.802Z,13.70
2019-03-31T00:42:03.324Z,13.00
2019-03-31T00:44:30.573Z,14.43
2019-03-31T00:46:57.854Z,13.20
2019-03-31T00:49:25.113Z,14.00
2019-03-31T00:51:52.389Z,14.13
2019-03-31T00:54:19.901Z,14.60
2019-03-31T00:56:47.152Z,14.47
2019-03-31T00:59:14.674Z,15.10
2019-03-31T01:01:43.827Z,14.50
2019-03-31T01:04:11.846Z,14.90
2019-03-31T01:06:39.243Z,13.80
2019-03-31T01:09:09.949Z,14.90
2019-03-31T01:11:37.189Z,13.63
2019-03-31T01:14:04.546Z,14.83
2019-03-31T01:16:31.867Z,14.13
2019-03-31T01:18:59.397Z,15.17
2019-03-31T01:21:26.652Z,14.20
2019-03-31T01:23:53.922Z,15.40
2019-03-31T01:26:22.341Z,14.73
2019-03-31T01:28:49.613Z,15.77
2019-03-31T01:31:16.870Z,15.40
2019-03-31T01:33:44.143Z,14.97
2019-03-31T01:36:11.860Z,16.17
2019-03-31T01:38:39.134Z,15.73
2019-03-31T01:41:06.382Z,15.40
2019-03-31T01:43:33.650Z,17.53
2019-03-31T01:46:00.898Z,16.40
2019-03-31T01:48:28.165Z,16.53
2019-03-31T01:50:55.421Z,16.70
2019-03-31T01:53:22.770Z,15.43
2019-03-31T01:55:50.034Z,16.90
2019-03-31T01:58:17.349Z,16.10
2019-03-31T02:00:49.187Z,16.30
2019-03-31T02:03:16.434Z,18.03
2019-03-31T02:05:43.970Z,17.23
2019-03-31T02:08:11.228Z,16.13
2019-03-31T02:10:38.496Z,16.97
2019-03-31T02:13:06.026Z,17.00
2019-03-31T02:15:33.298Z,16.60
2019-03-31T02:18:00.549Z,17.33
2019-03-31T02:20:28.190Z,16.60
2019-03-31T02:22:55.695Z,18.00
2019-03-31T02:25:23.226Z,16.50
2019-03-31T02:27:50.489Z,16.90
2019-03-31T02:30:17.835Z,16.60
2019-03-31T02:32:45.091Z,16.80
2019-03-31T02:35:12.536Z,17.17
2019-03-31T02:37:39.787Z,16.07
2019-03-31T02:40:07.126Z,16.67
2019-03-31T02:42:34.390Z,17.37
2019-03-31T02:45:01.673Z,16.83
2019-03-31T02:47:28.994Z,16.53
2019-03-31T02:49:56.250Z,17.10
2019-03-31T02:52:23.590Z,18.00
2019-03-31T02:54:50.920Z,16.50
2019-03-31T02:57:19.728Z,16.60
2019-03-31T02:59:47.505Z,17.20
2019-03-31T03:02:14.921Z,15.70
2019-03-31T03:04:42.990Z,17.93
2019-03-31T03:07:10.842Z,17.00
2019-03-31T03:09:39.327Z,16.03
2019-03-31T03:12:08.145Z,16.87
2019-03-31T03:14:36.938Z,16.67
2019-03-31T03:17:04.211Z,15.70
2019-03-31T03:19:31.722Z,17.17
2019-03-31T03:21:58.996Z,15.90
2019-03-31T03:24:26.248Z,17.43
2019-03-31T03:26:53.524Z,17.07
2019-03-31T03:29:20.778Z,17.00
2019-03-31T03:31:48.331Z,16.53
2019-03-31T03:34:15.566Z,15.80
2019-03-31T03:36:43.486Z,17.40
2019-03-31T03:39:11.075Z,15.57
2019-03-31T03:41:38.350Z,17.10
2019-03-31T03:44:05.616Z,15.00
2019-03-31T03:46:32.864Z,17.20
2019-03-31T03:49:00.231Z,15.93
2019-03-31T03:51:27.582Z,16.20
2019-03-31T03:53:54.918Z,15.57
2019-03-31T03:56:22.176Z,16.80
2019-03-31T03:58:49.441Z,15.30
2019-03-31T04:01:18.473Z,16.10
2019-03-31T04:03:45.753Z,16.40
2019-03-31T04:06:13.067Z,15.60
2019-03-31T04:08:40.338Z,15.07
2019-03-31T04:11:21.232Z,16.63
2019-03-31T04:13:46.451Z,16.20
2019-03-31T04:16:13.774Z,14.13
2019-03-31T04:18:41.125Z,14.30
2019-03-31T04:21:08.400Z,14.90
2019-03-31T04:23:35.686Z,15.60
2019-03-31T04:26:03.000Z,16.37
2019-03-31T04:28:30.269Z,16.60
2019-03-31T04:30:57.525Z,15.73
2019-03-31T04:33:24.800Z,15.37
2019-03-31T04:35:52.045Z,15.53
2019-03-31T04:38:19.326Z,14.40
2019-03-31T04:40:46.661Z,14.10
2019-03-31T04:43:14.178Z,14.43
2019-03-31T04:45:41.435Z,16.07
2019-03-31T04:48:08.711Z,15.90
2019-03-31T04:50:36.221Z,15.33
2019-03-31T04:53:03.479Z,15.40
2019-03-31T04:55:30.754Z,15.00
2019-03-31T04:57:58.012Z,14.53
2019-03-31T05:00:25.288Z,16.13
2019-03-31T05:02:52.538Z,16.03
2019-03-31T05:05:19.898Z,15.27
2019-03-31T05:07:47.169Z,14.40
2019-03-31T05:10:14.446Z,15.47
2019-03-31T05:12:41.708Z,15.90
2019-03-31T05:15:09.041Z,15.77
2019-03-31T05:17:36.298Z,17.40
2019-03-31T05:20:04.336Z,16.03
2019-03-31T05:22:31.595Z,14.50
2019-03-31T05:25:01.928Z,17.27
2019-03-31T05:27:29.245Z,16.90
2019-03-31T05:29:56.512Z,15.23
2019-03-31T05:32:24.087Z,16.07
2019-03-31T05:34:51.351Z,18.40
2019-03-31T05:37:18.611Z,15.93
2019-03-31T05:39:45.877Z,17.50
2019-03-31T05:42:13.141Z,16.70
2019-03-31T05:44:40.649Z,16.93
2019-03-31T05:47:07.927Z,16.67
2019-03-31T05:49:35.481Z,17.90
2019-03-31T05:52:02.767Z,17.27
2019-03-31T05:54:30.089Z,16.30
2019-03-31T05:56:57.362Z,15.00
2019-03-31T05:59:24.864Z,16.47
2019-03-31T06:01:52.407Z,17.33
2019-03-31T06:04:32.661Z,15.40
2019-03-31T06:06:48.972Z,16.70
2019-03-31T06:09:16.306Z,15.73
2019-03-31T06:11:43.578Z,16.40
2019-03-31T06:14:11.991Z,16.80
2019-03-31T06:16:39.265Z,15.33
2019-03-31T06:19:06.543Z,15.67
2019-03-31T06:21:33.868Z,17.00
2019-03-31T06:24:01.386Z,15.50
2019-03-31T06:26:28.654Z,16.00
2019-03-31T06:28:55.923Z,16.40
2019-03-31T06:31:23.197Z,13.97
2019-03-31T06:33:50.446Z,15.40
2019-03-31T06:36:17.702Z,14.10
2019-03-31T06:38:44.976Z,15.87
2019-03-31T06:41:12.231Z,14.37
2019-03-31T06:43:39.509Z,15.33
2019-03-31T06:46:07.021Z,15.43
2019-03-31T06:48:34.289Z,14.67
2019-03-31T06:51:01.797Z,14.43
2019-03-31T06:53:29.343Z,13.93
2019-03-31T06:55:56.596Z,15.43
2019-03-31T06:58:23.866Z,15.30
2019-03-31T07:00:51.117Z,14.30
2019-03-31T07:03:18.634Z,16.07
2019-03-31T07:05:46.134Z,16.47
2019-03-31T07:08:13.662Z,15.83
2019-03-31T07:10:41.169Z,13.70
2019-03-31T07:13:08.687Z,15.23
2019-03-31T07:15:35.946Z,15.90
2019-03-31T07:18:03.478Z,15.90
2019-03-31T07:20:30.723Z,16.47
2019-03-31T07:22:58.331Z,20.90
2019-03-31T07:25:25.585Z,17.73
2019-03-31T07:27:52.857Z,17.10
2019-03-31T07:30:20.273Z,16.83
2019-03-31T07:32:47.621Z,21.30
2019-03-31T07:35:18.658Z,18.60
2019-03-31T07:37:47.663Z,16.80
2019-03-31T07:40:15.178Z,17.53
2019-03-31T07:42:42.945Z,17.97
2019-03-31T07:45:10.882Z,18.03
2019-03-31T07:47:38.206Z,17.80
2019-03-31T07:50:09.580Z,17.23
2019-03-31T07:52:36.833Z,16.33
2019-03-31T07:55:04.276Z,16.97
2019-03-31T07:57:31.522Z,19.00
2019-03-31T07:59:58.790Z,17.63
2019-03-31T08:02:26.037Z,16.60
2019-03-31T08:04:53.552Z,16.67
2019-03-31T08:07:20.806Z,15.33
2019-03-31T08:09:48.082Z,16.47
2019-03-31T08:12:15.341Z,20.43
2019-03-31T08:14:42.612Z,18.70
2019-03-31T08:17:09.863Z,16.80
2019-03-31T08:19:37.138Z,15.57
2019-03-31T08:22:04.639Z,18.30
2019-03-31T08:24:34.365Z,15.47
2019-03-31T08:27:05.354Z,18.80
2019-03-31T08:29:30.729Z,16.00
2019-03-31T08:31:57.980Z,16.57
2019-03-31T08:34:25.250Z,14.87
2019-03-31T08:36:52.501Z,17.70
2019-03-31T08:39:19.776Z,15.03
2019-03-31T08:41:47.026Z,16.00
2019-03-31T08:44:14.323Z,17.30
2019-03-31T08:46:41.577Z,17.37
2019-03-31T08:49:08.978Z,17.17
2019-03-31T08:51:36.229Z,19.50
2019-03-31T08:54:03.501Z,19.13
2019-03-31T08:56:30.766Z,16.97
2019-03-31T08:58:58.354Z,17.60
2019-03-31T09:01:25.611Z,17.20
2019-03-31T09:03:52.884Z,17.23
2019-03-31T09:06:20.133Z,18.23
2019-03-31T09:08:47.412Z,17.70
2019-03-31T09:11:14.662Z,17.30
2019-03-31T09:13:41.918Z,15.80
2019-03-31T09:16:09.185Z,15.80
2019-03-31T09:18:36.439Z,16.17
2019-03-31T09:21:03.780Z,16.70
2019-03-31T09:23:31.026Z,15.60
2019-03-31T09:25:58.302Z,15.67
2019-03-31T09:28:25.566Z,15.50
2019-03-31T09:30:52.836Z,14.53
2019-03-31T09:33:20.077Z,15.57
2019-03-31T09:35:47.347Z,14.00
2019-03-31T09:38:14.601Z,14.33
2019-03-31T09:40:41.875Z,13.87
2019-03-31T09:43:09.494Z,14.20
2019-03-31T09:45:36.814Z,14.00
2019-03-31T09:48:04.138Z,13.80
2019-03-31T09:50:31.411Z,14.97
2019-03-31T09:52:58.654Z,15.47
2019-03-31T09:55:26.001Z,16.53
2019-03-31T09:57:53.259Z,14.50
2019-03-31T10:00:22.306Z,13.50
2019-03-31T10:02:49.562Z,14.87
2019-03-31T10:05:16.834Z,15.23
2019-03-31T10:07:45.159Z,16.47
2019-03-31T10:10:16.630Z,16.40
2019-03-31T10:12:43.882Z,14.93
2019-03-31T10:15:11.155Z,16.63
2019-03-31T10:17:38.417Z,16.40
2019-03-31T10:20:05.957Z,18.70
2019-03-31T10:22:33.205Z,17.80
2019-03-31T10:25:00.721Z,16.30
2019-03-31T10:27:27.969Z,16.40
2019-03-31T10:29:55.499Z,20.40
2019-03-31T10:32:22.994Z,18.60
2019-03-31T10:34:50.269Z,18.50
2019-03-31T10:37:17.517Z,16.93
2019-03-31T10:39:44.857Z,18.03
2019-03-31T10:42:12.114Z,17.27
2019-03-31T10:44:39.382Z,15.70
2019-03-31T10:47:06.891Z,15.40
2019-03-31T10:49:34.181Z,15.73
2019-03-31T10:52:01.424Z,17.40
2019-03-31T10:54:28.707Z,17.30
2019-03-31T10:56:55.959Z,16.00
2019-03-31T10:59:23.213Z,15.50
2019-03-31T11:01:50.486Z,16.13
2019-03-31T11:04:17.988Z,16.90
2019-03-31T11:06:58.238Z,17.20
2019-03-31T11:09:14.298Z,17.30
2019-03-31T11:11:41.575Z,17.03
2019-03-31T11:14:08.906Z,15.90
2019-03-31T11:16:36.264Z,17.63
2019-03-31T11:19:03.758Z,17.10
2019-03-31T11:21:35.692Z,16.90
2019-03-31T11:24:02.943Z,15.00
2019-03-31T11:26:30.473Z,15.83
2019-03-31T11:28:57.722Z,18.00
2019-03-31T11:31:25.001Z,18.30
2019-03-31T11:33:52.344Z,17.57
2019-03-31T11:36:19.678Z,16.73
2019-03-31T11:38:46.939Z,16.20
2019-03-31T11:41:14.282Z,16.37
2019-03-31T11:43:41.575Z,15.40
2019-03-31T11:46:08.846Z,16.80
2019-03-31T11:48:36.097Z,15.33
2019-03-31T11:51:03.387Z,14.50
2019-03-31T11:53:30.630Z,15.17
2019-03-31T11:55:57.906Z,15.70
2019-03-31T11:58:25.225Z,13.53
2019-03-31T12:00:54.110Z,14.83
2019-03-31T12:03:21.381Z,16.03
2019-03-31T12:05:48.637Z,14.40
2019-03-31T12:08:15.973Z,15.67
2019-03-31T12:10:43.234Z,16.83
2019-03-31T12:13:10.506Z,16.70
2019-03-31T12:15:37.758Z,15.70
2019-03-31T12:18:05.265Z,15.20
2019-03-31T12:20:32.514Z,14.63
2019-03-31T12:22:59.791Z,13.80
2019-03-31T12:25:27.346Z,15.53
2019-03-31T12:27:54.822Z,16.30
2019-03-31T12:30:28.364Z,15.03
2019-03-31T12:32:56.310Z,16.37
2019-03-31T12:35:23.801Z,14.63
2019-03-31T12:37:51.070Z,15.53
2019-03-31T12:40:28.345Z,15.20
2019-03-31T12:42:55.687Z,15.03
2019-03-31T12:45:23.662Z,16.87
2019-03-31T12:47:51.773Z,16.20
2019-03-31T12:50:19.483Z,14.60
2019-03-31T12:52:50.792Z,15.10
2019-03-31T12:55:15.804Z,12.90
2019-03-31T12:57:43.074Z,13.63
2019-03-31T13:00:10.942Z,12.77
2019-03-31T13:02:38.463Z,13.60
2019-03-31T13:05:06.105Z,12.97
2019-03-31T13:07:33.372Z,14.27
2019-03-31T13:10:01.056Z,12.63
2019-03-31T13:12:28.305Z,12.13
2019-03-31T13:14:55.854Z,12.27
2019-03-31T13:17:23.290Z,12.50
2019-03-31T13:19:50.634Z,13.90
2019-03-31T13:22:18.122Z,11.47
2019-03-31T13:24:45.419Z,11.83
2019-03-31T13:27:12.966Z,12.80
2019-03-31T13:29:40.506Z,14.87
2019-03-31T13:32:07.827Z,14.47
2019-03-31T13:34:35.107Z,16.10
2019-03-31T13:37:02.360Z,16.10
2019-03-31T13:39:29.634Z,16.10
2019-03-31T13:41:56.891Z,18.70
2019-03-31T13:44:24.157Z,17.77
2019-03-31T13:46:51.413Z,19.40
2019-03-31T13:49:18.699Z,17.90
2019-03-31T13:51:45.945Z,17.90
2019-03-31T13:54:13.482Z,17.80
2019-03-31T13:56:41.243Z,19.03
2019-03-31T13:59:09.201Z,19.20
2019-03-31T14:01:36.863Z,20.17
2019-03-31T14:04:04.207Z,21.80
2019-03-31T14:06:31.817Z,20.27
2019-03-31T14:08:59.197Z,20.57
2019-03-31T14:11:26.469Z,22.17
2019-03-31T14:13:55.966Z,19.30
2019-03-31T14:16:23.010Z,25.20
2019-03-31T14:18:50.283Z,25.07
2019-03-31T14:21:17.534Z,29.83
2019-03-31T14:23:44.927Z,30.67
2019-03-31T14:26:12.832Z,34.10
2019-03-31T14:28:40.123Z,34.43
2019-03-31T14:31:07.401Z,34.87
2019-03-31T14:33:34.911Z,37.80
2019-03-31T14:36:02.497Z,36.90
2019-03-31T14:38:40.099Z,39.93
2019-03-31T14:40:58.991Z,39.33
2019-03-31T14:43:28.003Z,39.00
2019-03-31T14:45:55.234Z,39.00
2019-03-31T14:48:22.477Z,38.03
2019-03-31T14:50:50.599Z,38.90
2019-03-31T14:53:17.850Z,38.80
2019-03-31T14:55:45.129Z,38.10
2019-03-31T14:58:12.387Z,39.60
2019-03-31T15:00:39.712Z,40.53
2019-03-31T15:03:06.970Z,40.33
2019-03-31T15:05:34.240Z,39.53
2019-03-31T15:08:01.894Z,40.77
2019-03-31T15:10:29.426Z,41.77
2019-03-31T15:12:56.928Z,41.10
2019-03-31T15:15:24.211Z,42.50
2019-03-31T15:17:51.710Z,41.77
2019-03-31T15:20:18.969Z,39.73
2019-03-31T15:22:46.229Z,42.70
2019-03-31T15:25:13.481Z,43.70
2019-03-31T15:27:40.758Z,40.23
2019-03-31T15:30:08.193Z,41.47
2019-03-31T15:32:35.545Z,41.00
2019-03-31T15:35:02.796Z,42.83
2019-03-31T15:37:30.125Z,41.03
2019-03-31T15:39:57.374Z,39.70
2019-03-31T15:42:24.641Z,39.90
2019-03-31T15:44:51.912Z,40.63
2019-03-31T15:47:19.242Z,39.83
2019-03-31T15:49:46.490Z,41.40
2019-03-31T15:52:13.761Z,41.37
2019-03-31T15:54:41.022Z,44.50
2019-03-31T15:57:08.293Z,43.23
2019-03-31T15:59:35.542Z,43.83
2019-03-31T16:02:02.806Z,41.30
2019-03-31T16:04:30.307Z,40.80
2019-03-31T16:06:57.556Z,41.63
2019-03-31T16:09:25.066Z,41.97
2019-03-31T16:11:53.835Z,42.00
2019-03-31T16:14:21.723Z,42.13
2019-03-31T16:16:49.023Z,40.87
2019-03-31T16:19:16.303Z,37.27
2019-03-31T16:21:44.316Z,40.03
2019-03-31T16:24:11.955Z,40.10
2019-03-31T16:26:39.274Z,38.90
2019-03-31T16:29:06.550Z,36.90
2019-03-31T16:31:33.797Z,38.10
2019-03-31T16:34:01.077Z,39.50
2019-03-31T16:36:28.334Z,37.80
2019-03-31T16:38:55.606Z,38.03
2019-03-31T16:41:23.148Z,35.60
2019-03-31T16:43:50.446Z,35.90
2019-03-31T16:46:17.942Z,35.57
2019-03-31T16:48:45.477Z,36.57
2019-03-31T16:51:12.738Z,34.63
2019-03-31T16:53:40.265Z,35.70
2019-03-31T16:56:07.514Z,35.47
2019-03-31T16:58:34.790Z,35.30
2019-03-31T17:01:02.048Z,34.20
2019-03-31T17:03:29.302Z,33.50
2019-03-31T17:05:56.827Z,34.27
2019-03-31T17:08:24.079Z,33.43
2019-03-31T17:10:51.345Z,34.40
2019-03-31T17:13:18.677Z,32.90
2019-03-31T17:15:45.954Z,33.30
2019-03-31T17:18:13.210Z,32.20
2019-03-31T17:20:40.496Z,35.03
2019-03-31T17:23:07.814Z,34.20
2019-03-31T17:25:35.331Z,32.97
2019-03-31T17:28:02.653Z,30.60
2019-03-31T17:30:29.991Z,31.73
2019-03-31T17:32:57.494Z,32.30
2019-03-31T17:35:25.001Z,32.57
2019-03-31T17:37:52.511Z,32.27
2019-03-31T17:40:20.054Z,32.80
2019-03-31T17:42:47.307Z,30.67
2019-03-31T17:45:17.208Z,31.77
2019-03-31T17:47:43.545Z,30.00
2019-03-31T17:50:10.889Z,29.00
2019-03-31T17:52:38.139Z,30.30
2019-03-31T17:55:05.573Z,27.30
2019-03-31T17:57:32.902Z,26.40
2019-03-31T18:00:00.372Z,25.23
2019-03-31T18:02:27.714Z,24.80
2019-03-31T18:04:54.966Z,22.87
2019-03-31T18:07:22.305Z,23.20
2019-03-31T18:09:49.565Z,22.43
2019-03-31T18:12:16.837Z,22.30
2019-03-31T18:14:44.090Z,21.23
2019-03-31T18:17:11.364Z,21.60
2019-03-31T18:19:38.615Z,19.50
2019-03-31T18:22:16.377Z,18.40
2019-03-31T18:24:35.169Z,18.60
2019-03-31T18:27:02.678Z,18.10
2019-03-31T18:29:29.942Z,19.97
2019-03-31T18:31:57.220Z,19.20
2019-03-31T18:34:24.478Z,19.40
2019-03-31T18:36:51.752Z,18.17
2019-03-31T18:39:18.998Z,19.50
2019-03-31T18:41:46.266Z,18.77
2019-03-31T18:44:13.521Z,17.90
2019-03-31T18:46:41.033Z,19.02
2019-03-31T18:49:08.370Z,18.50
2019-03-31T18:51:35.642Z,18.43
2019-03-31T18:54:04.541Z,19.47
2019-03-31T18:56:39.750Z,18.40
2019-03-31T18:59:11.662Z,19.10
2019-03-31T19:01:46.831Z,19.20
2019-03-31T19:04:24.806Z,18.10
2019-03-31T19:06:57.375Z,18.10
2019-03-31T19:09:30.043Z,18.23
2019-03-31T19:12:11.771Z,18.10
2019-03-31T19:14:40.449Z,17.03
2019-03-31T19:17:19.647Z,15.83
2019-03-31T19:20:04.086Z,17.20
2019-03-31T19:22:42.017Z,17.60
2019-03-31T19:25:16.950Z,16.73
2019-03-31T19:27:48.605Z,16.30
2019-03-31T19:30:17.603Z,14.90
2019-03-31T19:32:46.509Z,15.30
2019-03-31T19:35:33.211Z,15.00
2019-03-31T19:38:14.150Z,15.63
2019-03-31T19:40:46.517Z,17.37
2019-03-31T19:43:22.041Z,16.50
2019-03-31T19:46:07.175Z,15.30
2019-03-31T19:48:46.232Z,15.40
2019-03-31T19:51:27.142Z,14.73
2019-03-31T19:54:05.179Z,15.03
2019-03-31T19:56:40.135Z,14.33
2019-03-31T19:59:21.190Z,14.03
2019-03-31T20:02:08.253Z,15.00
2019-03-31T20:04:39.943Z,15.10
2019-03-31T20:07:26.638Z,13.13
2019-03-31T20:09:58.333Z,12.50
2019-03-31T20:12:27.306Z,13.43
2019-03-31T20:14:56.217Z,14.03
2019-03-31T20:17:39.962Z,11.63
2019-03-31T20:20:09.027Z,12.27
2019-03-31T20:22:40.877Z,12.47
2019-03-31T20:25:10.006Z,10.73
2019-03-31T20:27:50.467Z,11.70
2019-03-31T20:30:28.177Z,11.70
2019-03-31T20:32:57.074Z,11.00
2019-03-31T20:35:42.266Z,10.87
2019-03-31T20:38:23.087Z,12.10
2019-03-31T20:40:57.932Z,10.13
2019-03-31T20:43:29.509Z,10.70
2019-03-31T20:45:56.769Z,11.37
2019-03-31T20:48:24.267Z,11.13
2019-03-31T20:50:51.812Z,10.53
2019-03-31T20:53:19.314Z,10.67
2019-03-31T20:55:46.835Z,9.83
2019-03-31T20:58:14.342Z,10.73
2019-03-31T21:00:41.616Z,9.87
2019-03-31T21:03:09.129Z,10.30
2019-03-31T21:05:36.411Z,9.67
2019-03-31T21:08:03.746Z,9.70
2019-03-31T21:10:30.999Z,9.40
2019-03-31T21:12:58.268Z,9.50
2019-03-31T21:15:25.789Z,9.60
2019-03-31T21:17:53.057Z,10.20
2019-03-31T21:20:20.308Z,9.30
2019-03-31T21:22:47.574Z,9.30
2019-03-31T21:25:14.822Z,9.57
2019-03-31T21:27:42.118Z,9.37
2019-03-31T21:30:09.445Z,9.27
2019-03-31T21:32:36.710Z,9.50
2019-03-31T21:35:05.227Z,9.40
2019-03-31T21:37:32.474Z,9.87
2019-03-31T21:39:59.743Z,8.90
2019-03-31T21:42:26.985Z,9.40
2019-03-31T21:44:54.256Z,9.20
2019-03-31T21:47:21.502Z,9.60
2019-03-31T21:49:48.773Z,9.40
2019-03-31T21:52:16.049Z,9.40
2019-03-31T21:54:43.293Z,9.03
2019-03-31T21:57:10.818Z,9.43
2019-03-31T21:59:38.315Z,9.67
2019-03-31T22:02:05.831Z,10.33
2019-03-31T22:04:33.083Z,10.27
2019-03-31T22:07:00.354Z,9.60
2019-03-31T22:09:27.618Z,9.90
2019-03-31T22:11:55.124Z,9.70
2019-03-31T22:14:22.462Z,8.93
2019-03-31T22:16:50.002Z,9.90
2019-03-31T22:19:17.314Z,11.10
2019-03-31T22:21:44.586Z,10.17
2019-03-31T22:24:11.826Z,10.20
2019-03-31T22:26:39.102Z,11.80
2019-03-31T22:29:06.607Z,11.00
2019-03-31T22:31:33.879Z,10.57
2019-03-31T22:34:01.129Z,9.70
2019-03-31T22:36:28.512Z,8.90
2019-03-31T22:38:56.026Z,9.03
2019-03-31T22:41:23.293Z,9.30
2019-03-31T22:43:50.547Z,9.73
2019-03-31T22:46:18.002Z,10.50
2019-03-31T22:48:45.505Z,10.17
2019-03-31T22:51:12.831Z,10.00
2019-03-31T22:53:40.099Z,9.50
2019-03-31T22:56:07.354Z,10.90
2019-03-31T22:58:34.617Z,8.87
2019-03-31T23:01:02.126Z,10.53
2019-03-31T23:03:29.401Z,10.30
2019-03-31T23:05:56.667Z,10.33
2019-03-31T23:08:24.190Z,9.30
2019-03-31T23:10:51.430Z,9.33
2019-03-31T23:13:18.779Z,10.20
2019-03-31T23:15:46.036Z,10.17
2019-03-31T23:18:13.305Z,11.23
2019-03-31T23:20:40.553Z,10.70
2019-03-31T23:23:07.833Z,10.60
2019-03-31T23:25:35.081Z,10.70
2019-03-31T23:28:02.354Z,10.30
2019-03-31T23:30:29.614Z,11.10
2019-03-31T23:32:56.879Z,10.10
2019-03-31T23:35:24.137Z,10.40
2019-03-31T23:37:51.386Z,10.90
2019-03-31T23:40:18.664Z,10.70
2019-03-31T23:42:45.916Z,10.20
2019-03-31T23:45:13.261Z,12.07
2019-03-31T23:47:40.766Z,11.30
2019-03-31T23:50:08.034Z,10.97
2019-03-31T23:52:35.280Z,10.13
2019-03-31T23:55:02.549Z,10.67
2019-03-31T23:57:42.597Z,11.60
